Nova Esperanca, Brazil
Current Conditions -  °F | °C
As of 8:00 AM on Monday 26 Jan 2015 (Local Time) from SBMG Reporting Station
Scattered Clouds Scattered Clouds  
Wind Chill: 72°   Ceiling: Unl
Heat Index: 72°   Visibility: 6mi
Dew Point: 66°   Wind: 3mph
Humidity: 83%   Direction: 40°NE
Pressure: 29.94"   Gusts: NA
Location:  23.18°S, 52.2°W
Report Text: SBMG 261000Z 04003KT 9999 FEW035 SCT100 22/19 Q1014
Loading
Personal Weather Stations






























Interactive Weather Map New forecast layout! Learn more

10-Day Weather Forecast

Advertisements
Track Severe Weather on mobile